This is the latest recevied weather packets stored in our database for station/object K4OAM-13. If no packets are shown the sender has not sent any weather packets the latest 10 day(s).
| Time | Temp. | Humidity | Pressure | Rain* | Wind** | Luminosity | Snow |
|---|---|---|---|---|---|---|---|
| 1777529224 | 3.33° C | 82% | 1012.6 hPa | - | - | - | - |
| 1777528624 | 3.89° C | 80% | 1012.7 hPa | - | - | - | - |
| 1777528024 | 3.89° C | 79% | 1012.6 hPa | - | - | - | - |
| 1777527424 | 3.89° C | 77% | 1012.8 hPa | - | - | - | - |
| 1777526824 | 5° C | 76% | 1012.4 hPa | - | - | - | - |
| 1777526224 | 5.56° C | 75% | 1012.1 hPa | - | - | - | - |
| 1777525624 | 5.56° C | 76% | 1012.1 hPa | - | - | - | - |
| 1777525024 | 5.56° C | 76% | 1012.2 hPa | - | - | - | - |
| 1777524424 | 5.56° C | 75% | 1012.3 hPa | - | - | - | - |
| 1777523824 | 5.56° C | 76% | 1012.4 hPa | - | - | - | - |
| 1777523223 | 5.56° C | 75% | 1012.6 hPa | - | - | - | - |
| 1777522623 | 5.56° C | 76% | 1012.8 hPa | - | - | - | - |
| 1777522024 | 5° C | 77% | 1012.7 hPa | - | - | - | - |
| 1777521424 | 5° C | 78% | 1012.9 hPa | - | - | - | - |
| 1777520823 | 3.89° C | 79% | 1013.5 hPa | - | - | - | - |
| 1777520224 | 3.89° C | 78% | 1013.8 hPa | - | - | - | - |
| 1777519623 | 4.44° C | 76% | 1013.4 hPa | - | - | - | - |
| 1777519023 | 5.56° C | 77% | 1013.1 hPa | - | - | - | - |
| 1777518424 | 5.56° C | 77% | 1013.3 hPa | - | - | - | - |
| 1777517824 | 3.89° C | 77% | 1013.9 hPa | - | - | - | - |
| 1777517223 | 4.44° C | 76% | 1014 hPa | - | - | - | - |
| 1777516624 | 4.44° C | 78% | 1013.8 hPa | - | - | - | - |
| 1777516024 | 4.44° C | 76% | 1014 hPa | - | - | - | - |
| 1777515424 | 5° C | 78% | 1013.9 hPa | - | - | - | - |
| 1777514824 | 4.44° C | 78% | 1014.3 hPa | - | - | - | - |
* Rain since midnight (hover to see other rain measurements)
** Current wind speed in m/s (hover to see current wind gust speed)